sensor_id;sensor_type;location;lat;lon;timestamp;temperature;humidity
14798;DHT22;7490;63.708;20.368;2022-10-17T00:00:21;6.20;95.70
14798;DHT22;7490;63.708;20.368;2022-10-17T00:02:47;6.20;95.70
14798;DHT22;7490;63.708;20.368;2022-10-17T00:05:13;6.20;95.80
14798;DHT22;7490;63.708;20.368;2022-10-17T00:07:38;6.20;95.80
14798;DHT22;7490;63.708;20.368;2022-10-17T00:10:05;6.20;95.80
14798;DHT22;7490;63.708;20.368;2022-10-17T00:12:32;6.20;95.80
14798;DHT22;7490;63.708;20.368;2022-10-17T00:14:57;6.20;95.80
14798;DHT22;7490;63.708;20.368;2022-10-17T00:17:23;6.20;95.80
14798;DHT22;7490;63.708;20.368;2022-10-17T00:19:49;6.20;95.90
14798;DHT22;7490;63.708;20.368;2022-10-17T00:22:15;6.20;96.00
14798;DHT22;7490;63.708;20.368;2022-10-17T00:24:40;6.20;96.10
14798;DHT22;7490;63.708;20.368;2022-10-17T00:27:06;6.20;96.20
14798;DHT22;7490;63.708;20.368;2022-10-17T00:29:32;6.20;96.10
14798;DHT22;7490;63.708;20.368;2022-10-17T00:31:57;6.20;95.80
14798;DHT22;7490;63.708;20.368;2022-10-17T00:34:24;6.20;95.70
14798;DHT22;7490;63.708;20.368;2022-10-17T00:36:50;6.20;95.60
14798;DHT22;7490;63.708;20.368;2022-10-17T00:39:15;6.20;95.50
14798;DHT22;7490;63.708;20.368;2022-10-17T00:41:41;6.10;95.50
14798;DHT22;7490;63.708;20.368;2022-10-17T00:46:57;6.10;95.50
14798;DHT22;7490;63.708;20.368;2022-10-17T00:49:24;6.10;95.60
14798;DHT22;7490;63.708;20.368;2022-10-17T00:51:58;6.10;95.60
14798;DHT22;7490;63.708;20.368;2022-10-17T00:54:27;6.00;95.50
14798;DHT22;7490;63.708;20.368;2022-10-17T00:56:55;6.00;95.40
14798;DHT22;7490;63.708;20.368;2022-10-17T00:59:21;6.00;95.40
14798;DHT22;7490;63.708;20.368;2022-10-17T01:02:05;6.00;95.30
14798;DHT22;7490;63.708;20.368;2022-10-17T01:04:31;5.90;95.20
14798;DHT22;7490;63.708;20.368;2022-10-17T01:06:57;5.90;95.10
14798;DHT22;7490;63.708;20.368;2022-10-17T01:09:24;5.80;95.00
14798;DHT22;7490;63.708;20.368;2022-10-17T01:11:52;5.80;95.00
14798;DHT22;7490;63.708;20.368;2022-10-17T01:25:23;5.60;94.90
14798;DHT22;7490;63.708;20.368;2022-10-17T01:28:28;5.60;95.00
14798;DHT22;7490;63.708;20.368;2022-10-17T01:31:57;5.50;95.10
14798;DHT22;7490;63.708;20.368;2022-10-17T01:34:25;5.50;95.20
14798;DHT22;7490;63.708;20.368;2022-10-17T01:37:03;5.50;95.30
14798;DHT22;7490;63.708;20.368;2022-10-17T01:39:43;5.50;95.40
14798;DHT22;7490;63.708;20.368;2022-10-17T01:42:29;5.50;95.40
14798;DHT22;7490;63.708;20.368;2022-10-17T01:45:03;5.50;95.40
14798;DHT22;7490;63.708;20.368;2022-10-17T01:47:32;5.40;95.40
14798;DHT22;7490;63.708;20.368;2022-10-17T01:50:09;5.40;95.40
14798;DHT22;7490;63.708;20.368;2022-10-17T01:53:17;5.40;95.40
14798;DHT22;7490;63.708;20.368;2022-10-17T01:55:44;5.40;95.50
14798;DHT22;7490;63.708;20.368;2022-10-17T01:58:15;5.40;95.50
14798;DHT22;7490;63.708;20.368;2022-10-17T02:00:44;5.40;95.60
14798;DHT22;7490;63.708;20.368;2022-10-17T02:03:14;5.40;95.60
14798;DHT22;7490;63.708;20.368;2022-10-17T02:05:41;5.40;95.70
14798;DHT22;7490;63.708;20.368;2022-10-17T02:08:08;5.40;95.70
14798;DHT22;7490;63.708;20.368;2022-10-17T02:10:57;5.40;95.70
14798;DHT22;7490;63.708;20.368;2022-10-17T02:21:22;5.30;95.60
14798;DHT22;7490;63.708;20.368;2022-10-17T02:26:34;5.30;95.60
14798;DHT22;7490;63.708;20.368;2022-10-17T02:31:43;5.30;95.60
14798;DHT22;7490;63.708;20.368;2022-10-17T02:34:25;5.30;95.60
14798;DHT22;7490;63.708;20.368;2022-10-17T02:36:57;5.20;95.50
14798;DHT22;7490;63.708;20.368;2022-10-17T02:39:25;5.20;95.50
14798;DHT22;7490;63.708;20.368;2022-10-17T02:41:53;5.20;95.50
14798;DHT22;7490;63.708;20.368;2022-10-17T02:44:21;5.20;95.50
14798;DHT22;7490;63.708;20.368;2022-10-17T02:46:54;5.20;95.40
14798;DHT22;7490;63.708;20.368;2022-10-17T02:49:28;5.20;95.40
14798;DHT22;7490;63.708;20.368;2022-10-17T02:53:08;5.20;95.40
14798;DHT22;7490;63.708;20.368;2022-10-17T02:55:37;5.20;95.50
14798;DHT22;7490;63.708;20.368;2022-10-17T02:58:15;4.90;95.30
14798;DHT22;7490;63.708;20.368;2022-10-17T03:00:42;5.10;95.30
14798;DHT22;7490;63.708;20.368;2022-10-17T03:05:44;5.10;95.30
14798;DHT22;7490;63.708;20.368;2022-10-17T03:08:10;5.00;95.20
14798;DHT22;7490;63.708;20.368;2022-10-17T03:10:36;5.00;95.40
14798;DHT22;7490;63.708;20.368;2022-10-17T03:13:01;5.00;95.50
14798;DHT22;7490;63.708;20.368;2022-10-17T03:15:27;5.00;95.60
14798;DHT22;7490;63.708;20.368;2022-10-17T03:17:53;5.00;95.60
14798;DHT22;7490;63.708;20.368;2022-10-17T03:20:18;5.00;95.60
14798;DHT22;7490;63.708;20.368;2022-10-17T03:22:44;5.00;95.60
14798;DHT22;7490;63.708;20.368;2022-10-17T03:25:10;5.00;95.60
14798;DHT22;7490;63.708;20.368;2022-10-17T03:27:35;5.00;95.70
14798;DHT22;7490;63.708;20.368;2022-10-17T03:30:01;5.00;95.70
14798;DHT22;7490;63.708;20.368;2022-10-17T03:32:27;5.00;95.90
14798;DHT22;7490;63.708;20.368;2022-10-17T03:34:52;5.00;96.00
14798;DHT22;7490;63.708;20.368;2022-10-17T03:37:18;5.00;96.00
14798;DHT22;7490;63.708;20.368;2022-10-17T03:39:44;5.00;96.00
14798;DHT22;7490;63.708;20.368;2022-10-17T03:42:09;5.00;96.10
14798;DHT22;7490;63.708;20.368;2022-10-17T03:44:35;5.00;96.20
14798;DHT22;7490;63.708;20.368;2022-10-17T03:47:00;5.10;96.40
14798;DHT22;7490;63.708;20.368;2022-10-17T03:49:26;5.10;96.60
14798;DHT22;7490;63.708;20.368;2022-10-17T03:51:52;5.10;96.60
14798;DHT22;7490;63.708;20.368;2022-10-17T03:54:17;5.10;96.60
14798;DHT22;7490;63.708;20.368;2022-10-17T03:56:43;5.20;96.60
14798;DHT22;7490;63.708;20.368;2022-10-17T03:59:12;5.20;96.60
14798;DHT22;7490;63.708;20.368;2022-10-17T04:01:38;5.20;96.50
14798;DHT22;7490;63.708;20.368;2022-10-17T04:04:04;5.20;96.40
14798;DHT22;7490;63.708;20.368;2022-10-17T04:06:30;5.20;96.40
14798;DHT22;7490;63.708;20.368;2022-10-17T04:08:56;5.20;96.40
14798;DHT22;7490;63.708;20.368;2022-10-17T04:11:22;5.20;96.40
14798;DHT22;7490;63.708;20.368;2022-10-17T04:13:52;5.20;96.50
14798;DHT22;7490;63.708;20.368;2022-10-17T04:16:19;5.20;96.60
14798;DHT22;7490;63.708;20.368;2022-10-17T04:18:44;5.30;96.50
14798;DHT22;7490;63.708;20.368;2022-10-17T04:21:11;5.30;96.50
14798;DHT22;7490;63.708;20.368;2022-10-17T04:23:36;5.30;96.60
14798;DHT22;7490;63.708;20.368;2022-10-17T04:26:04;5.30;96.70
14798;DHT22;7490;63.708;20.368;2022-10-17T04:28:30;5.30;96.80
14798;DHT22;7490;63.708;20.368;2022-10-17T04:31:00;5.40;96.80
14798;DHT22;7490;63.708;20.368;2022-10-17T04:33:26;5.40;96.70
14798;DHT22;7490;63.708;20.368;2022-10-17T04:36:12;5.40;96.70
14798;DHT22;7490;63.708;20.368;2022-10-17T04:38:38;5.40;96.70
14798;DHT22;7490;63.708;20.368;2022-10-17T04:41:07;5.40;96.60
14798;DHT22;7490;63.708;20.368;2022-10-17T04:43:35;5.40;96.70
14798;DHT22;7490;63.708;20.368;2022-10-17T04:46:03;5.50;96.80
14798;DHT22;7490;63.708;20.368;2022-10-17T04:48:29;5.50;96.80
14798;DHT22;7490;63.708;20.368;2022-10-17T04:51:00;5.50;96.90
14798;DHT22;7490;63.708;20.368;2022-10-17T04:53:27;5.50;96.90
14798;DHT22;7490;63.708;20.368;2022-10-17T04:55:53;5.60;96.80
14798;DHT22;7490;63.708;20.368;2022-10-17T04:58:19;5.60;97.00
14798;DHT22;7490;63.708;20.368;2022-10-17T05:00:45;5.60;96.70
14798;DHT22;7490;63.708;20.368;2022-10-17T05:03:10;5.60;96.60
14798;DHT22;7490;63.708;20.368;2022-10-17T05:05:40;5.60;96.60
14798;DHT22;7490;63.708;20.368;2022-10-17T05:08:08;5.60;96.50
14798;DHT22;7490;63.708;20.368;2022-10-17T05:10:38;5.60;96.50
14798;DHT22;7490;63.708;20.368;2022-10-17T05:13:05;5.60;96.50
14798;DHT22;7490;63.708;20.368;2022-10-17T05:15:31;5.60;96.50
14798;DHT22;7490;63.708;20.368;2022-10-17T05:17:57;5.60;96.50
14798;DHT22;7490;63.708;20.368;2022-10-17T05:20:23;5.60;96.40
14798;DHT22;7490;63.708;20.368;2022-10-17T05:22:49;5.60;96.30
14798;DHT22;7490;63.708;20.368;2022-10-17T05:25:15;5.50;96.40
14798;DHT22;7490;63.708;20.368;2022-10-17T05:27:40;5.50;96.30
14798;DHT22;7490;63.708;20.368;2022-10-17T05:30:06;5.50;96.30
14798;DHT22;7490;63.708;20.368;2022-10-17T05:32:32;5.50;96.30
14798;DHT22;7490;63.708;20.368;2022-10-17T05:34:58;5.50;96.30
14798;DHT22;7490;63.708;20.368;2022-10-17T05:37:24;5.50;96.20
14798;DHT22;7490;63.708;20.368;2022-10-17T05:39:50;5.50;96.20
14798;DHT22;7490;63.708;20.368;2022-10-17T05:42:15;5.40;96.30
14798;DHT22;7490;63.708;20.368;2022-10-17T05:44:41;5.40;96.40
14798;DHT22;7490;63.708;20.368;2022-10-17T05:47:07;5.40;96.40
14798;DHT22;7490;63.708;20.368;2022-10-17T05:49:33;5.40;96.40
14798;DHT22;7490;63.708;20.368;2022-10-17T05:51:59;5.40;96.40
14798;DHT22;7490;63.708;20.368;2022-10-17T05:54:25;5.40;96.40
14798;DHT22;7490;63.708;20.368;2022-10-17T05:56:54;5.40;96.50
14798;DHT22;7490;63.708;20.368;2022-10-17T05:59:20;5.50;96.50
14798;DHT22;7490;63.708;20.368;2022-10-17T06:01:46;5.50;96.50
14798;DHT22;7490;63.708;20.368;2022-10-17T06:04:12;5.50;96.50
14798;DHT22;7490;63.708;20.368;2022-10-17T06:06:39;5.50;96.50
14798;DHT22;7490;63.708;20.368;2022-10-17T06:09:05;5.50;96.60
14798;DHT22;7490;63.708;20.368;2022-10-17T06:11:32;5.50;96.60
14798;DHT22;7490;63.708;20.368;2022-10-17T06:13:58;5.50;96.80
14798;DHT22;7490;63.708;20.368;2022-10-17T06:16:24;5.70;97.70
14798;DHT22;7490;63.708;20.368;2022-10-17T06:18:49;6.10;98.90
14798;DHT22;7490;63.708;20.368;2022-10-17T06:21:20;6.90;99.50
14798;DHT22;7490;63.708;20.368;2022-10-17T06:23:46;7.80;99.60
14798;DHT22;7490;63.708;20.368;2022-10-17T06:26:12;8.80;98.90
14798;DHT22;7490;63.708;20.368;2022-10-17T06:28:38;9.70;98.40
14798;DHT22;7490;63.708;20.368;2022-10-17T06:31:08;10.40;97.30
14798;DHT22;7490;63.708;20.368;2022-10-17T06:33:34;11.00;96.60
14798;DHT22;7490;63.708;20.368;2022-10-17T06:36:00;11.20;95.90
14798;DHT22;7490;63.708;20.368;2022-10-17T06:38:26;11.30;95.40
14798;DHT22;7490;63.708;20.368;2022-10-17T06:40:52;11.20;95.70
14798;DHT22;7490;63.708;20.368;2022-10-17T06:43:22;11.30;95.60
14798;DHT22;7490;63.708;20.368;2022-10-17T06:45:48;11.40;95.00
14798;DHT22;7490;63.708;20.368;2022-10-17T06:48:14;11.30;94.70
14798;DHT22;7490;63.708;20.368;2022-10-17T06:50:40;11.00;93.90
14798;DHT22;7490;63.708;20.368;2022-10-17T06:53:05;10.60;93.30
14798;DHT22;7490;63.708;20.368;2022-10-17T06:55:31;10.20;92.80
14798;DHT22;7490;63.708;20.368;2022-10-17T06:57:57;9.70;92.70
14798;DHT22;7490;63.708;20.368;2022-10-17T07:00:23;9.40;92.90
14798;DHT22;7490;63.708;20.368;2022-10-17T07:02:51;9.10;93.10
14798;DHT22;7490;63.708;20.368;2022-10-17T07:05:16;8.90;93.70
14798;DHT22;7490;63.708;20.368;2022-10-17T07:07:44;8.70;94.00
14798;DHT22;7490;63.708;20.368;2022-10-17T07:10:09;8.50;94.10
14798;DHT22;7490;63.708;20.368;2022-10-17T07:12:35;8.40;94.30
14798;DHT22;7490;63.708;20.368;2022-10-17T07:15:02;8.30;94.50
14798;DHT22;7490;63.708;20.368;2022-10-17T07:17:29;8.20;94.80
14798;DHT22;7490;63.708;20.368;2022-10-17T07:19:54;8.10;95.00
14798;DHT22;7490;63.708;20.368;2022-10-17T07:22:20;8.10;95.20
14798;DHT22;7490;63.708;20.368;2022-10-17T07:24:46;8.00;95.50
14798;DHT22;7490;63.708;20.368;2022-10-17T07:27:12;8.10;96.70
14798;DHT22;7490;63.708;20.368;2022-10-17T07:29:38;8.50;98.10
14798;DHT22;7490;63.708;20.368;2022-10-17T07:32:04;9.90;97.70
14798;DHT22;7490;63.708;20.368;2022-10-17T07:34:33;11.20;96.40
14798;DHT22;7490;63.708;20.368;2022-10-17T07:36:59;12.10;94.60
14798;DHT22;7490;63.708;20.368;2022-10-17T07:39:25;12.10;93.30
14798;DHT22;7490;63.708;20.368;2022-10-17T07:41:51;11.80;92.80
14798;DHT22;7490;63.708;20.368;2022-10-17T07:44:16;11.50;92.80
14798;DHT22;7490;63.708;20.368;2022-10-17T07:46:42;11.10;92.90
14798;DHT22;7490;63.708;20.368;2022-10-17T07:49:08;10.80;93.00
14798;DHT22;7490;63.708;20.368;2022-10-17T07:51:33;10.60;93.20
14798;DHT22;7490;63.708;20.368;2022-10-17T07:53:59;10.30;93.40
14798;DHT22;7490;63.708;20.368;2022-10-17T07:56:25;10.10;93.40
14798;DHT22;7490;63.708;20.368;2022-10-17T07:58:51;9.90;93.50
14798;DHT22;7490;63.708;20.368;2022-10-17T08:01:17;9.70;93.70
14798;DHT22;7490;63.708;20.368;2022-10-17T08:03:44;9.60;93.90
14798;DHT22;7490;63.708;20.368;2022-10-17T08:06:11;9.40;94.10
14798;DHT22;7490;63.708;20.368;2022-10-17T08:08:37;9.30;94.30
14798;DHT22;7490;63.708;20.368;2022-10-17T08:11:06;9.20;94.50
14798;DHT22;7490;63.708;20.368;2022-10-17T08:13:32;9.20;94.90
14798;DHT22;7490;63.708;20.368;2022-10-17T08:16:03;9.50;97.00
14798;DHT22;7490;63.708;20.368;2022-10-17T08:18:31;10.90;97.70
14798;DHT22;7490;63.708;20.368;2022-10-17T08:21:01;12.70;96.10
14798;DHT22;7490;63.708;20.368;2022-10-17T08:23:27;14.30;94.30
14798;DHT22;7490;63.708;20.368;2022-10-17T08:25:53;15.80;92.50
14798;DHT22;7490;63.708;20.368;2022-10-17T08:28:19;17.10;90.90
14798;DHT22;7490;63.708;20.368;2022-10-17T08:30:45;18.20;88.50
14798;DHT22;7490;63.708;20.368;2022-10-17T08:33:10;19.00;85.70
14798;DHT22;7490;63.708;20.368;2022-10-17T08:35:36;19.90;82.50
14798;DHT22;7490;63.708;20.368;2022-10-17T08:38:02;20.10;78.60
14798;DHT22;7490;63.708;20.368;2022-10-17T08:40:30;19.80;75.70
14798;DHT22;7490;63.708;20.368;2022-10-17T08:45:39;18.00;75.80
14798;DHT22;7490;63.708;20.368;2022-10-17T08:48:12;17.80;79.30
14798;DHT22;7490;63.708;20.368;2022-10-17T08:50:51;18.50;79.30
14798;DHT22;7490;63.708;20.368;2022-10-17T08:53:24;19.60;76.40
14798;DHT22;7490;63.708;20.368;2022-10-17T08:55:54;20.50;74.00
14798;DHT22;7490;63.708;20.368;2022-10-17T09:06:27;23.40;63.10
14798;DHT22;7490;63.708;20.368;2022-10-17T09:20:15;24.90;56.30
14798;DHT22;7490;63.708;20.368;2022-10-17T09:25:16;25.20;54.20
14798;DHT22;7490;63.708;20.368;2022-10-17T09:28:19;25.30;53.80
14798;DHT22;7490;63.708;20.368;2022-10-17T09:31:02;25.40;52.10
14798;DHT22;7490;63.708;20.368;2022-10-17T09:33:33;25.60;51.90
14798;DHT22;7490;63.708;20.368;2022-10-17T09:36:03;25.70;51.80
14798;DHT22;7490;63.708;20.368;2022-10-17T09:38:37;25.80;51.20
14798;DHT22;7490;63.708;20.368;2022-10-17T09:41:06;25.90;50.00
14798;DHT22;7490;63.708;20.368;2022-10-17T09:43:38;26.00;49.80
14798;DHT22;7490;63.708;20.368;2022-10-17T09:46:21;26.10;49.40
14798;DHT22;7490;63.708;20.368;2022-10-17T09:49:00;26.10;48.20
14798;DHT22;7490;63.708;20.368;2022-10-17T09:51:29;26.10;48.20
14798;DHT22;7490;63.708;20.368;2022-10-17T09:54:04;26.10;48.40
14798;DHT22;7490;63.708;20.368;2022-10-17T09:56:59;26.10;47.30
14798;DHT22;7490;63.708;20.368;2022-10-17T09:59:35;26.10;46.80
14798;DHT22;7490;63.708;20.368;2022-10-17T10:02:21;26.30;47.00
14798;DHT22;7490;63.708;20.368;2022-10-17T10:04:57;26.20;46.00
14798;DHT22;7490;63.708;20.368;2022-10-17T10:07:28;26.20;46.20
14798;DHT22;7490;63.708;20.368;2022-10-17T10:09:55;26.00;45.80
14798;DHT22;7490;63.708;20.368;2022-10-17T10:12:25;25.90;45.90
14798;DHT22;7490;63.708;20.368;2022-10-17T10:14:52;25.90;45.70
14798;DHT22;7490;63.708;20.368;2022-10-17T10:17:34;26.00;45.60
14798;DHT22;7490;63.708;20.368;2022-10-17T10:20:00;26.00;44.60
14798;DHT22;7490;63.708;20.368;2022-10-17T10:22:26;26.00;45.00
14798;DHT22;7490;63.708;20.368;2022-10-17T10:25:14;26.00;44.90
14798;DHT22;7490;63.708;20.368;2022-10-17T10:27:43;25.90;43.70
14798;DHT22;7490;63.708;20.368;2022-10-17T10:30:31;25.90;44.20
14798;DHT22;7490;63.708;20.368;2022-10-17T10:32:59;25.80;43.50
14798;DHT22;7490;63.708;20.368;2022-10-17T10:35:34;25.80;44.20
14798;DHT22;7490;63.708;20.368;2022-10-17T10:38:03;25.80;43.70
14798;DHT22;7490;63.708;20.368;2022-10-17T10:40:37;25.70;43.70
14798;DHT22;7490;63.708;20.368;2022-10-17T10:43:36;25.60;43.60
14798;DHT22;7490;63.708;20.368;2022-10-17T10:46:27;25.50;43.20
14798;DHT22;7490;63.708;20.368;2022-10-17T10:56:50;25.40;42.50
14798;DHT22;7490;63.708;20.368;2022-10-17T10:59:21;25.30;42.70
14798;DHT22;7490;63.708;20.368;2022-10-17T11:01:56;25.10;42.80
14798;DHT22;7490;63.708;20.368;2022-10-17T11:07:02;24.80;43.10
14798;DHT22;7490;63.708;20.368;2022-10-17T11:09:48;24.50;43.10
14798;DHT22;7490;63.708;20.368;2022-10-17T11:14:57;23.70;43.40
14798;DHT22;7490;63.708;20.368;2022-10-17T11:17:39;22.80;44.20
14798;DHT22;7490;63.708;20.368;2022-10-17T11:20:46;21.60;45.50
14798;DHT22;7490;63.708;20.368;2022-10-17T11:25:50;19.10;49.90
14798;DHT22;7490;63.708;20.368;2022-10-17T11:28:20;18.20;51.50
14798;DHT22;7490;63.708;20.368;2022-10-17T11:36:07;16.40;54.90
14798;DHT22;7490;63.708;20.368;2022-10-17T11:38:59;15.90;56.00
14798;DHT22;7490;63.708;20.368;2022-10-17T11:41:36;15.50;57.00
14798;DHT22;7490;63.708;20.368;2022-10-17T11:44:20;15.20;57.70
14798;DHT22;7490;63.708;20.368;2022-10-17T11:47:00;14.90;58.20
14798;DHT22;7490;63.708;20.368;2022-10-17T11:49:35;14.70;58.90
14798;DHT22;7490;63.708;20.368;2022-10-17T11:54:46;14.30;60.00
14798;DHT22;7490;63.708;20.368;2022-10-17T12:00:07;14.10;61.10
14798;DHT22;7490;63.708;20.368;2022-10-17T12:05:25;13.90;61.80
14798;DHT22;7490;63.708;20.368;2022-10-17T12:08:03;13.80;62.40
14798;DHT22;7490;63.708;20.368;2022-10-17T12:10:38;13.20;62.50
14798;DHT22;7490;63.708;20.368;2022-10-17T12:19:27;13.50;63.90
14798;DHT22;7490;63.708;20.368;2022-10-17T12:21:53;13.50;64.20
14798;DHT22;7490;63.708;20.368;2022-10-17T12:24:40;13.50;64.60
14798;DHT22;7490;63.708;20.368;2022-10-17T12:29:47;13.30;65.00
14798;DHT22;7490;63.708;20.368;2022-10-17T12:32:14;13.30;65.20
14798;DHT22;7490;63.708;20.368;2022-10-17T12:34:50;13.30;65.50
14798;DHT22;7490;63.708;20.368;2022-10-17T12:45:47;13.20;66.30
14798;DHT22;7490;63.708;20.368;2022-10-17T12:56:21;13.00;66.70
14798;DHT22;7490;63.708;20.368;2022-10-17T12:58:54;13.00;66.80
14798;DHT22;7490;63.708;20.368;2022-10-17T13:01:31;13.00;66.90
14798;DHT22;7490;63.708;20.368;2022-10-17T13:03:58;12.90;66.90
14798;DHT22;7490;63.708;20.368;2022-10-17T13:06:33;12.90;67.00
14798;DHT22;7490;63.708;20.368;2022-10-17T13:09:27;12.90;67.10
14798;DHT22;7490;63.708;20.368;2022-10-17T13:11:55;12.80;67.10
14798;DHT22;7490;63.708;20.368;2022-10-17T13:14:22;12.80;67.20
14798;DHT22;7490;63.708;20.368;2022-10-17T13:16:56;12.70;67.30
14798;DHT22;7490;63.708;20.368;2022-10-17T13:19:25;12.70;67.30
14798;DHT22;7490;63.708;20.368;2022-10-17T13:22:01;12.70;67.40
14798;DHT22;7490;63.708;20.368;2022-10-17T13:24:36;12.50;67.80
14798;DHT22;7490;63.708;20.368;2022-10-17T13:27:03;12.50;68.00
14798;DHT22;7490;63.708;20.368;2022-10-17T13:29:29;12.60;67.80
14798;DHT22;7490;63.708;20.368;2022-10-17T13:32:01;12.60;67.80
14798;DHT22;7490;63.708;20.368;2022-10-17T13:34:29;12.50;67.80
14798;DHT22;7490;63.708;20.368;2022-10-17T13:37:06;12.50;67.80
14798;DHT22;7490;63.708;20.368;2022-10-17T13:39:45;12.40;67.80
14798;DHT22;7490;63.708;20.368;2022-10-17T13:42:23;12.40;67.90
14798;DHT22;7490;63.708;20.368;2022-10-17T13:44:50;12.30;68.00
14798;DHT22;7490;63.708;20.368;2022-10-17T13:47:31;12.20;68.10
14798;DHT22;7490;63.708;20.368;2022-10-17T13:49:58;12.20;68.30
14798;DHT22;7490;63.708;20.368;2022-10-17T13:52:26;12.20;68.60
14798;DHT22;7490;63.708;20.368;2022-10-17T13:54:53;12.10;68.70
14798;DHT22;7490;63.708;20.368;2022-10-17T13:57:22;12.10;68.90
14798;DHT22;7490;63.708;20.368;2022-10-17T14:00:02;12.00;68.90
14798;DHT22;7490;63.708;20.368;2022-10-17T14:02:31;12.00;69.10
14798;DHT22;7490;63.708;20.368;2022-10-17T14:05:10;11.90;69.20
14798;DHT22;7490;63.708;20.368;2022-10-17T14:07:54;11.80;69.40
14798;DHT22;7490;63.708;20.368;2022-10-17T14:10:41;11.80;69.50
14798;DHT22;7490;63.708;20.368;2022-10-17T14:13:20;11.70;69.60
14798;DHT22;7490;63.708;20.368;2022-10-17T14:15:47;11.60;69.70
14798;DHT22;7490;63.708;20.368;2022-10-17T14:18:18;11.60;69.90
14798;DHT22;7490;63.708;20.368;2022-10-17T14:20:49;11.50;70.10
14798;DHT22;7490;63.708;20.368;2022-10-17T14:23:36;11.50;70.30
14798;DHT22;7490;63.708;20.368;2022-10-17T14:26:12;11.40;70.70
14798;DHT22;7490;63.708;20.368;2022-10-17T14:28:40;11.30;70.70
14798;DHT22;7490;63.708;20.368;2022-10-17T14:31:22;11.20;70.80
14798;DHT22;7490;63.708;20.368;2022-10-17T14:33:50;11.20;71.20
14798;DHT22;7490;63.708;20.368;2022-10-17T14:36:18;11.10;71.30
14798;DHT22;7490;63.708;20.368;2022-10-17T14:38:51;11.10;71.60
14798;DHT22;7490;63.708;20.368;2022-10-17T14:41:24;11.00;71.70
14798;DHT22;7490;63.708;20.368;2022-10-17T14:43:57;11.00;72.00
14798;DHT22;7490;63.708;20.368;2022-10-17T14:46:23;10.90;72.10
14798;DHT22;7490;63.708;20.368;2022-10-17T14:48:55;10.80;72.30
14798;DHT22;7490;63.708;20.368;2022-10-17T14:51:20;10.80;72.50
14798;DHT22;7490;63.708;20.368;2022-10-17T14:54:16;10.70;72.70
14798;DHT22;7490;63.708;20.368;2022-10-17T14:56:49;10.60;72.90
14798;DHT22;7490;63.708;20.368;2022-10-17T14:59:16;10.50;73.00
14798;DHT22;7490;63.708;20.368;2022-10-17T15:01:47;10.50;73.20
14798;DHT22;7490;63.708;20.368;2022-10-17T15:04:14;10.40;73.30
14798;DHT22;7490;63.708;20.368;2022-10-17T15:06:39;10.30;73.50
14798;DHT22;7490;63.708;20.368;2022-10-17T15:09:05;10.30;73.90
14798;DHT22;7490;63.708;20.368;2022-10-17T15:11:31;10.20;74.10
14798;DHT22;7490;63.708;20.368;2022-10-17T15:13:57;10.10;74.30
14798;DHT22;7490;63.708;20.368;2022-10-17T15:16:23;10.10;74.70
14798;DHT22;7490;63.708;20.368;2022-10-17T15:18:50;10.00;74.90
14798;DHT22;7490;63.708;20.368;2022-10-17T15:21:18;10.00;75.20
14798;DHT22;7490;63.708;20.368;2022-10-17T15:23:44;9.90;75.40
14798;DHT22;7490;63.708;20.368;2022-10-17T15:26:31;9.80;75.60
14798;DHT22;7490;63.708;20.368;2022-10-17T15:28:58;9.80;76.10
14798;DHT22;7490;63.708;20.368;2022-10-17T15:31:25;9.70;76.10
14798;DHT22;7490;63.708;20.368;2022-10-17T15:33:51;9.70;76.30
14798;DHT22;7490;63.708;20.368;2022-10-17T15:36:28;9.60;76.40
14798;DHT22;7490;63.708;20.368;2022-10-17T15:38:56;9.50;76.70
14798;DHT22;7490;63.708;20.368;2022-10-17T15:41:25;9.50;76.90
14798;DHT22;7490;63.708;20.368;2022-10-17T15:43:50;9.50;77.20
14798;DHT22;7490;63.708;20.368;2022-10-17T15:46:18;9.40;77.40
14798;DHT22;7490;63.708;20.368;2022-10-17T15:48:46;9.30;77.60
14798;DHT22;7490;63.708;20.368;2022-10-17T15:51:11;9.30;77.90
14798;DHT22;7490;63.708;20.368;2022-10-17T15:53:37;9.20;77.90
14798;DHT22;7490;63.708;20.368;2022-10-17T15:56:04;9.20;78.10
14798;DHT22;7490;63.708;20.368;2022-10-17T15:58:35;9.10;78.40
14798;DHT22;7490;63.708;20.368;2022-10-17T16:01:02;9.00;78.60
14798;DHT22;7490;63.708;20.368;2022-10-17T16:03:28;9.00;78.90
14798;DHT22;7490;63.708;20.368;2022-10-17T16:05:55;9.00;79.20
14798;DHT22;7490;63.708;20.368;2022-10-17T16:08:21;8.90;79.40
14798;DHT22;7490;63.708;20.368;2022-10-17T16:10:47;8.90;79.60
14798;DHT22;7490;63.708;20.368;2022-10-17T16:13:21;8.90;79.80
14798;DHT22;7490;63.708;20.368;2022-10-17T16:15:47;8.80;79.90
14798;DHT22;7490;63.708;20.368;2022-10-17T16:18:13;8.80;80.20
14798;DHT22;7490;63.708;20.368;2022-10-17T16:20:39;8.80;80.30
14798;DHT22;7490;63.708;20.368;2022-10-17T16:23:05;8.70;80.40
14798;DHT22;7490;63.708;20.368;2022-10-17T16:25:33;8.70;80.50
14798;DHT22;7490;63.708;20.368;2022-10-17T16:27:59;8.70;81.40
14798;DHT22;7490;63.708;20.368;2022-10-17T16:30:27;8.70;80.80
14798;DHT22;7490;63.708;20.368;2022-10-17T16:32:54;8.70;81.00
14798;DHT22;7490;63.708;20.368;2022-10-17T16:35:23;8.60;81.80
14798;DHT22;7490;63.708;20.368;2022-10-17T16:37:49;8.60;81.20
14798;DHT22;7490;63.708;20.368;2022-10-17T16:40:15;8.60;81.30
14798;DHT22;7490;63.708;20.368;2022-10-17T16:42:41;8.60;81.60
14798;DHT22;7490;63.708;20.368;2022-10-17T16:45:07;8.50;81.70
14798;DHT22;7490;63.708;20.368;2022-10-17T16:47:34;8.50;82.70
14798;DHT22;7490;63.708;20.368;2022-10-17T16:50:00;8.50;82.00
14798;DHT22;7490;63.708;20.368;2022-10-17T16:52:25;8.50;82.10
14798;DHT22;7490;63.708;20.368;2022-10-17T16:54:51;8.50;82.30
14798;DHT22;7490;63.708;20.368;2022-10-17T16:57:17;8.50;82.50
14798;DHT22;7490;63.708;20.368;2022-10-17T16:59:43;8.50;82.80
14798;DHT22;7490;63.708;20.368;2022-10-17T17:02:10;8.50;83.00
14798;DHT22;7490;63.708;20.368;2022-10-17T17:04:36;8.50;83.10
14798;DHT22;7490;63.708;20.368;2022-10-17T17:07:02;8.50;83.20
14798;DHT22;7490;63.708;20.368;2022-10-17T17:09:27;8.50;83.40
14798;DHT22;7490;63.708;20.368;2022-10-17T17:11:53;8.50;83.50
14798;DHT22;7490;63.708;20.368;2022-10-17T17:14:19;8.50;83.60
14798;DHT22;7490;63.708;20.368;2022-10-17T17:16:44;8.50;83.60
14798;DHT22;7490;63.708;20.368;2022-10-17T17:19:12;8.50;83.60
14798;DHT22;7490;63.708;20.368;2022-10-17T17:21:38;8.50;83.60
14798;DHT22;7490;63.708;20.368;2022-10-17T17:24:05;8.50;83.60
14798;DHT22;7490;63.708;20.368;2022-10-17T17:26:33;8.50;83.70
14798;DHT22;7490;63.708;20.368;2022-10-17T17:29:02;8.40;83.60
14798;DHT22;7490;63.708;20.368;2022-10-17T17:31:30;8.40;83.70
14798;DHT22;7490;63.708;20.368;2022-10-17T17:33:57;8.40;84.00
14798;DHT22;7490;63.708;20.368;2022-10-17T17:36:29;8.40;84.10
14798;DHT22;7490;63.708;20.368;2022-10-17T17:38:57;8.30;84.10
14798;DHT22;7490;63.708;20.368;2022-10-17T17:41:23;8.30;84.20
14798;DHT22;7490;63.708;20.368;2022-10-17T17:43:49;8.30;84.40
14798;DHT22;7490;63.708;20.368;2022-10-17T17:46:17;8.30;84.60